sensor_id;sensor_type;location;lat;lon;timestamp;P1;durP1;ratioP1;P2;durP2;ratioP2
11344;SDS011;5727;42.600;23.028;2023-03-01T00:02:13;6.43;;;5.63;;
11344;SDS011;5727;42.600;23.028;2023-03-01T00:04:40;6.80;;;6.10;;
11344;SDS011;5727;42.600;23.028;2023-03-01T00:07:07;7.43;;;6.73;;
11344;SDS011;5727;42.600;23.028;2023-03-01T00:09:35;7.50;;;6.80;;
11344;SDS011;5727;42.600;23.028;2023-03-01T00:12:02;7.10;;;6.40;;
11344;SDS011;5727;42.600;23.028;2023-03-01T00:14:29;7.57;;;6.87;;
11344;SDS011;5727;42.600;23.028;2023-03-01T00:16:56;7.43;;;6.37;;
11344;SDS011;5727;42.600;23.028;2023-03-01T00:19:23;6.90;;;6.27;;
11344;SDS011;5727;42.600;23.028;2023-03-01T00:21:50;6.63;;;6.03;;
11344;SDS011;5727;42.600;23.028;2023-03-01T00:24:16;7.40;;;5.80;;
11344;SDS011;5727;42.600;23.028;2023-03-01T00:26:44;6.90;;;6.00;;
11344;SDS011;5727;42.600;23.028;2023-03-01T00:29:11;6.83;;;6.23;;
11344;SDS011;5727;42.600;23.028;2023-03-01T00:31:38;6.70;;;6.10;;
11344;SDS011;5727;42.600;23.028;2023-03-01T00:34:05;7.07;;;6.37;;
11344;SDS011;5727;42.600;23.028;2023-03-01T00:36:32;5.83;;;5.33;;
11344;SDS011;5727;42.600;23.028;2023-03-01T00:39:00;5.53;;;5.03;;
11344;SDS011;5727;42.600;23.028;2023-03-01T00:41:28;5.67;;;5.17;;
11344;SDS011;5727;42.600;23.028;2023-03-01T00:43:56;5.83;;;5.20;;
11344;SDS011;5727;42.600;23.028;2023-03-01T00:46:24;6.27;;;5.30;;
11344;SDS011;5727;42.600;23.028;2023-03-01T00:48:51;6.27;;;5.67;;
11344;SDS011;5727;42.600;23.028;2023-03-01T00:51:19;7.90;;;5.93;;
11344;SDS011;5727;42.600;23.028;2023-03-01T00:53:49;5.73;;;5.20;;
11344;SDS011;5727;42.600;23.028;2023-03-01T00:56:16;6.10;;;5.60;;
11344;SDS011;5727;42.600;23.028;2023-03-01T00:58:43;5.87;;;5.37;;
11344;SDS011;5727;42.600;23.028;2023-03-01T01:01:12;5.63;;;5.13;;
11344;SDS011;5727;42.600;23.028;2023-03-01T01:03:43;5.27;;;4.87;;
11344;SDS011;5727;42.600;23.028;2023-03-01T01:06:15;5.27;;;4.87;;
11344;SDS011;5727;42.600;23.028;2023-03-01T01:08:43;5.80;;;5.30;;
11344;SDS011;5727;42.600;23.028;2023-03-01T01:11:10;7.63;;;5.67;;
11344;SDS011;5727;42.600;23.028;2023-03-01T01:13:37;6.07;;;5.57;;
11344;SDS011;5727;42.600;23.028;2023-03-01T01:16:04;6.13;;;5.60;;
11344;SDS011;5727;42.600;23.028;2023-03-01T01:18:33;6.30;;;5.80;;
11344;SDS011;5727;42.600;23.028;2023-03-01T01:21:04;6.20;;;5.70;;
11344;SDS011;5727;42.600;23.028;2023-03-01T01:23:32;5.57;;;5.17;;
11344;SDS011;5727;42.600;23.028;2023-03-01T01:26:02;5.90;;;5.40;;
11344;SDS011;5727;42.600;23.028;2023-03-01T01:28:30;5.40;;;5.00;;
11344;SDS011;5727;42.600;23.028;2023-03-01T01:30:57;6.93;;;5.57;;
11344;SDS011;5727;42.600;23.028;2023-03-01T01:33:23;6.27;;;5.77;;
11344;SDS011;5727;42.600;23.028;2023-03-01T01:35:52;6.07;;;5.57;;
11344;SDS011;5727;42.600;23.028;2023-03-01T01:38:18;5.97;;;5.47;;
11344;SDS011;5727;42.600;23.028;2023-03-01T01:40:46;6.00;;;5.47;;
11344;SDS011;5727;42.600;23.028;2023-03-01T01:43:16;6.17;;;5.60;;
11344;SDS011;5727;42.600;23.028;2023-03-01T01:45:46;7.17;;;5.67;;
11344;SDS011;5727;42.600;23.028;2023-03-01T01:48:14;7.20;;;6.53;;
11344;SDS011;5727;42.600;23.028;2023-03-01T01:50:44;7.00;;;6.30;;
11344;SDS011;5727;42.600;23.028;2023-03-01T01:53:16;7.17;;;6.47;;
11344;SDS011;5727;42.600;23.028;2023-03-01T01:55:47;7.03;;;6.37;;
11344;SDS011;5727;42.600;23.028;2023-03-01T01:58:18;9.27;;;7.83;;
11344;SDS011;5727;42.600;23.028;2023-03-01T02:00:47;10.13;;;7.90;;
11344;SDS011;5727;42.600;23.028;2023-03-01T02:03:16;11.40;;;8.63;;
11344;SDS011;5727;42.600;23.028;2023-03-01T02:05:50;11.97;;;7.30;;
11344;SDS011;5727;42.600;23.028;2023-03-01T02:08:24;6.87;;;6.23;;
11344;SDS011;5727;42.600;23.028;2023-03-01T02:10:55;8.07;;;7.27;;
11344;SDS011;5727;42.600;23.028;2023-03-01T02:13:25;7.23;;;6.53;;
11344;SDS011;5727;42.600;23.028;2023-03-01T02:15:52;7.73;;;6.87;;
11344;SDS011;5727;42.600;23.028;2023-03-01T02:18:20;8.50;;;7.50;;
11344;SDS011;5727;42.600;23.028;2023-03-01T02:20:51;8.10;;;6.60;;
11344;SDS011;5727;42.600;23.028;2023-03-01T02:23:28;7.57;;;6.90;;
11344;SDS011;5727;42.600;23.028;2023-03-01T02:25:57;6.87;;;6.27;;
11344;SDS011;5727;42.600;23.028;2023-03-01T02:28:34;6.80;;;6.20;;
11344;SDS011;5727;42.600;23.028;2023-03-01T02:31:03;6.70;;;6.20;;
11344;SDS011;5727;42.600;23.028;2023-03-01T02:33:49;7.10;;;6.50;;
11344;SDS011;5727;42.600;23.028;2023-03-01T02:36:18;7.23;;;6.63;;
11344;SDS011;5727;42.600;23.028;2023-03-01T02:38:48;7.43;;;6.73;;
11344;SDS011;5727;42.600;23.028;2023-03-01T02:41:16;7.90;;;7.20;;
11344;SDS011;5727;42.600;23.028;2023-03-01T02:43:46;8.63;;;7.33;;
11344;SDS011;5727;42.600;23.028;2023-03-01T02:46:15;10.07;;;7.13;;
11344;SDS011;5727;42.600;23.028;2023-03-01T02:48:44;7.70;;;6.90;;
11344;SDS011;5727;42.600;23.028;2023-03-01T02:51:22;8.07;;;7.27;;
11344;SDS011;5727;42.600;23.028;2023-03-01T02:54:01;6.13;;;5.53;;
11344;SDS011;5727;42.600;23.028;2023-03-01T02:56:35;5.07;;;4.67;;
11344;SDS011;5727;42.600;23.028;2023-03-01T02:59:04;5.20;;;4.83;;
11344;SDS011;5727;42.600;23.028;2023-03-01T03:01:31;4.83;;;4.43;;
11344;SDS011;5727;42.600;23.028;2023-03-01T03:04:03;3.90;;;3.70;;
11344;SDS011;5727;42.600;23.028;2023-03-01T03:06:31;4.57;;;4.27;;
11344;SDS011;5727;42.600;23.028;2023-03-01T03:08:58;4.70;;;4.40;;
11344;SDS011;5727;42.600;23.028;2023-03-01T03:11:25;3.37;;;3.17;;
11344;SDS011;5727;42.600;23.028;2023-03-01T03:13:52;3.90;;;3.70;;
11344;SDS011;5727;42.600;23.028;2023-03-01T03:16:20;4.00;;;3.80;;
11344;SDS011;5727;42.600;23.028;2023-03-01T03:18:47;3.93;;;3.73;;
11344;SDS011;5727;42.600;23.028;2023-03-01T03:21:15;4.13;;;3.93;;
11344;SDS011;5727;42.600;23.028;2023-03-01T03:23:42;4.00;;;3.80;;
11344;SDS011;5727;42.600;23.028;2023-03-01T03:26:09;3.53;;;3.33;;
11344;SDS011;5727;42.600;23.028;2023-03-01T03:28:38;4.03;;;3.83;;
11344;SDS011;5727;42.600;23.028;2023-03-01T03:31:05;3.90;;;3.60;;
11344;SDS011;5727;42.600;23.028;2023-03-01T03:33:34;4.10;;;3.80;;
11344;SDS011;5727;42.600;23.028;2023-03-01T03:36:01;4.00;;;3.70;;
11344;SDS011;5727;42.600;23.028;2023-03-01T03:38:28;3.60;;;3.40;;
11344;SDS011;5727;42.600;23.028;2023-03-01T03:40:59;4.20;;;4.00;;
11344;SDS011;5727;42.600;23.028;2023-03-01T03:43:28;4.40;;;4.00;;
11344;SDS011;5727;42.600;23.028;2023-03-01T03:45:56;3.60;;;3.40;;
11344;SDS011;5727;42.600;23.028;2023-03-01T03:48:23;4.50;;;4.10;;
11344;SDS011;5727;42.600;23.028;2023-03-01T03:50:53;4.40;;;4.00;;
11344;SDS011;5727;42.600;23.028;2023-03-01T03:53:21;5.00;;;4.60;;
11344;SDS011;5727;42.600;23.028;2023-03-01T03:55:49;4.80;;;4.03;;
11344;SDS011;5727;42.600;23.028;2023-03-01T03:58:17;4.97;;;4.10;;
11344;SDS011;5727;42.600;23.028;2023-03-01T04:01:02;5.27;;;4.77;;
11344;SDS011;5727;42.600;23.028;2023-03-01T04:03:30;5.60;;;4.90;;
11344;SDS011;5727;42.600;23.028;2023-03-01T04:06:00;5.87;;;5.33;;
11344;SDS011;5727;42.600;23.028;2023-03-01T04:08:27;5.53;;;5.03;;
11344;SDS011;5727;42.600;23.028;2023-03-01T04:10:57;5.70;;;5.20;;
11344;SDS011;5727;42.600;23.028;2023-03-01T04:13:25;6.13;;;5.53;;
11344;SDS011;5727;42.600;23.028;2023-03-01T04:15:52;6.90;;;5.90;;
11344;SDS011;5727;42.600;23.028;2023-03-01T04:18:21;6.67;;;6.07;;
11344;SDS011;5727;42.600;23.028;2023-03-01T04:20:49;6.07;;;5.53;;
11344;SDS011;5727;42.600;23.028;2023-03-01T04:23:19;5.87;;;5.37;;
11344;SDS011;5727;42.600;23.028;2023-03-01T04:25:47;4.73;;;4.43;;
11344;SDS011;5727;42.600;23.028;2023-03-01T04:28:18;5.17;;;4.53;;
11344;SDS011;5727;42.600;23.028;2023-03-01T04:30:45;5.83;;;5.20;;
11344;SDS011;5727;42.600;23.028;2023-03-01T04:33:12;5.20;;;4.80;;
11344;SDS011;5727;42.600;23.028;2023-03-01T04:35:39;4.40;;;4.10;;
11344;SDS011;5727;42.600;23.028;2023-03-01T04:38:06;5.00;;;4.60;;
11344;SDS011;5727;42.600;23.028;2023-03-01T04:40:34;4.93;;;4.40;;
11344;SDS011;5727;42.600;23.028;2023-03-01T04:43:01;5.20;;;4.80;;
11344;SDS011;5727;42.600;23.028;2023-03-01T04:45:29;4.83;;;4.53;;
11344;SDS011;5727;42.600;23.028;2023-03-01T04:47:57;4.70;;;4.30;;
11344;SDS011;5727;42.600;23.028;2023-03-01T04:50:24;4.70;;;4.40;;
11344;SDS011;5727;42.600;23.028;2023-03-01T04:52:51;4.53;;;4.23;;
11344;SDS011;5727;42.600;23.028;2023-03-01T04:55:18;4.67;;;4.30;;
11344;SDS011;5727;42.600;23.028;2023-03-01T04:57:47;4.37;;;4.07;;
11344;SDS011;5727;42.600;23.028;2023-03-01T05:00:13;4.90;;;4.50;;
11344;SDS011;5727;42.600;23.028;2023-03-01T05:02:47;4.60;;;4.30;;
11344;SDS011;5727;42.600;23.028;2023-03-01T05:05:18;5.43;;;4.93;;
11344;SDS011;5727;42.600;23.028;2023-03-01T05:07:51;6.57;;;4.80;;
11344;SDS011;5727;42.600;23.028;2023-03-01T05:10:19;5.10;;;4.77;;
11344;SDS011;5727;42.600;23.028;2023-03-01T05:12:47;6.10;;;5.60;;
11344;SDS011;5727;42.600;23.028;2023-03-01T05:15:13;6.53;;;5.73;;
11344;SDS011;5727;42.600;23.028;2023-03-01T05:17:40;6.37;;;5.77;;
11344;SDS011;5727;42.600;23.028;2023-03-01T05:20:08;5.60;;;5.10;;
11344;SDS011;5727;42.600;23.028;2023-03-01T05:22:36;5.47;;;5.00;;
11344;SDS011;5727;42.600;23.028;2023-03-01T05:25:03;7.70;;;6.73;;
11344;SDS011;5727;42.600;23.028;2023-03-01T05:27:30;6.77;;;6.20;;
11344;SDS011;5727;42.600;23.028;2023-03-01T05:29:58;7.20;;;6.23;;
11344;SDS011;5727;42.600;23.028;2023-03-01T05:32:38;6.13;;;5.53;;
11344;SDS011;5727;42.600;23.028;2023-03-01T05:35:06;7.07;;;6.33;;
11344;SDS011;5727;42.600;23.028;2023-03-01T05:37:33;6.90;;;6.03;;
11344;SDS011;5727;42.600;23.028;2023-03-01T05:40:00;7.57;;;6.77;;
11344;SDS011;5727;42.600;23.028;2023-03-01T05:42:28;7.17;;;6.40;;
11344;SDS011;5727;42.600;23.028;2023-03-01T05:44:55;7.30;;;6.60;;
11344;SDS011;5727;42.600;23.028;2023-03-01T05:47:23;6.07;;;5.53;;
11344;SDS011;5727;42.600;23.028;2023-03-01T05:49:50;6.40;;;5.80;;
11344;SDS011;5727;42.600;23.028;2023-03-01T05:52:17;7.27;;;5.73;;
11344;SDS011;5727;42.600;23.028;2023-03-01T05:54:44;6.43;;;5.80;;
11344;SDS011;5727;42.600;23.028;2023-03-01T05:57:11;7.00;;;6.40;;
11344;SDS011;5727;42.600;23.028;2023-03-01T05:59:37;7.53;;;6.03;;
11344;SDS011;5727;42.600;23.028;2023-03-01T06:02:04;7.03;;;6.40;;
11344;SDS011;5727;42.600;23.028;2023-03-01T06:04:32;7.63;;;6.73;;
11344;SDS011;5727;42.600;23.028;2023-03-01T06:06:59;7.00;;;6.40;;
11344;SDS011;5727;42.600;23.028;2023-03-01T06:09:25;5.97;;;5.47;;
11344;SDS011;5727;42.600;23.028;2023-03-01T06:11:52;6.20;;;5.70;;
11344;SDS011;5727;42.600;23.028;2023-03-01T06:14:19;6.97;;;5.93;;
11344;SDS011;5727;42.600;23.028;2023-03-01T06:16:45;8.30;;;7.50;;
11344;SDS011;5727;42.600;23.028;2023-03-01T06:19:13;7.63;;;6.77;;
11344;SDS011;5727;42.600;23.028;2023-03-01T06:21:41;6.20;;;5.60;;
11344;SDS011;5727;42.600;23.028;2023-03-01T06:24:07;5.93;;;5.43;;
11344;SDS011;5727;42.600;23.028;2023-03-01T06:26:34;6.43;;;5.93;;
11344;SDS011;5727;42.600;23.028;2023-03-01T06:29:01;5.60;;;5.20;;
11344;SDS011;5727;42.600;23.028;2023-03-01T06:31:28;5.30;;;4.90;;
11344;SDS011;5727;42.600;23.028;2023-03-01T06:33:54;5.93;;;4.73;;
11344;SDS011;5727;42.600;23.028;2023-03-01T06:36:21;5.90;;;5.33;;
11344;SDS011;5727;42.600;23.028;2023-03-01T06:38:49;6.00;;;5.40;;
11344;SDS011;5727;42.600;23.028;2023-03-01T06:41:16;5.73;;;5.10;;
11344;SDS011;5727;42.600;23.028;2023-03-01T06:43:43;5.30;;;4.90;;
11344;SDS011;5727;42.600;23.028;2023-03-01T06:46:10;5.80;;;5.30;;
11344;SDS011;5727;42.600;23.028;2023-03-01T06:48:36;6.20;;;5.60;;
11344;SDS011;5727;42.600;23.028;2023-03-01T06:51:03;6.00;;;5.50;;
11344;SDS011;5727;42.600;23.028;2023-03-01T06:53:30;6.07;;;5.57;;
11344;SDS011;5727;42.600;23.028;2023-03-01T06:55:58;9.03;;;7.57;;
11344;SDS011;5727;42.600;23.028;2023-03-01T06:58:25;6.33;;;5.83;;
11344;SDS011;5727;42.600;23.028;2023-03-01T07:00:52;6.63;;;6.03;;
11344;SDS011;5727;42.600;23.028;2023-03-01T07:03:18;7.50;;;6.90;;
11344;SDS011;5727;42.600;23.028;2023-03-01T07:05:45;7.90;;;7.03;;
11344;SDS011;5727;42.600;23.028;2023-03-01T07:08:14;7.30;;;6.50;;
11344;SDS011;5727;42.600;23.028;2023-03-01T07:10:41;7.80;;;6.93;;
11344;SDS011;5727;42.600;23.028;2023-03-01T07:13:09;7.70;;;7.00;;
11344;SDS011;5727;42.600;23.028;2023-03-01T07:15:36;9.13;;;8.03;;
11344;SDS011;5727;42.600;23.028;2023-03-01T07:18:03;11.10;;;8.43;;
11344;SDS011;5727;42.600;23.028;2023-03-01T07:20:30;13.13;;;10.93;;
11344;SDS011;5727;42.600;23.028;2023-03-01T07:22:56;11.97;;;10.00;;
11344;SDS011;5727;42.600;23.028;2023-03-01T07:25:24;8.47;;;7.57;;
11344;SDS011;5727;42.600;23.028;2023-03-01T07:27:51;7.23;;;6.63;;
11344;SDS011;5727;42.600;23.028;2023-03-01T07:30:19;7.47;;;6.87;;
11344;SDS011;5727;42.600;23.028;2023-03-01T07:32:47;9.07;;;8.17;;
11344;SDS011;5727;42.600;23.028;2023-03-01T07:35:14;13.97;;;10.87;;
11344;SDS011;5727;42.600;23.028;2023-03-01T07:37:40;14.10;;;10.90;;
11344;SDS011;5727;42.600;23.028;2023-03-01T07:40:07;11.20;;;9.30;;
11344;SDS011;5727;42.600;23.028;2023-03-01T07:42:35;10.43;;;9.43;;
11344;SDS011;5727;42.600;23.028;2023-03-01T07:45:02;10.57;;;8.83;;
11344;SDS011;5727;42.600;23.028;2023-03-01T07:47:31;9.17;;;8.17;;
11344;SDS011;5727;42.600;23.028;2023-03-01T07:49:58;13.57;;;9.20;;
11344;SDS011;5727;42.600;23.028;2023-03-01T07:52:26;15.37;;;9.37;;
11344;SDS011;5727;42.600;23.028;2023-03-01T07:54:53;10.67;;;8.87;;
11344;SDS011;5727;42.600;23.028;2023-03-01T07:57:19;10.83;;;8.97;;
11344;SDS011;5727;42.600;23.028;2023-03-01T07:59:46;11.57;;;8.50;;
11344;SDS011;5727;42.600;23.028;2023-03-01T08:02:13;7.80;;;7.10;;
11344;SDS011;5727;42.600;23.028;2023-03-01T08:04:42;8.37;;;7.00;;
11344;SDS011;5727;42.600;23.028;2023-03-01T08:07:08;8.73;;;7.50;;
11344;SDS011;5727;42.600;23.028;2023-03-01T08:09:35;8.47;;;7.70;;
11344;SDS011;5727;42.600;23.028;2023-03-01T08:12:02;11.20;;;8.47;;
11344;SDS011;5727;42.600;23.028;2023-03-01T08:14:30;7.93;;;7.13;;
11344;SDS011;5727;42.600;23.028;2023-03-01T08:16:57;7.60;;;7.00;;
11344;SDS011;5727;42.600;23.028;2023-03-01T08:19:24;7.43;;;6.73;;
11344;SDS011;5727;42.600;23.028;2023-03-01T08:21:54;8.00;;;7.23;;
11344;SDS011;5727;42.600;23.028;2023-03-01T08:24:23;9.03;;;8.23;;
11344;SDS011;5727;42.600;23.028;2023-03-01T08:26:50;10.70;;;9.60;;
11344;SDS011;5727;42.600;23.028;2023-03-01T08:29:17;8.17;;;7.43;;
11344;SDS011;5727;42.600;23.028;2023-03-01T08:31:43;9.07;;;6.93;;
11344;SDS011;5727;42.600;23.028;2023-03-01T08:34:11;8.83;;;8.03;;
11344;SDS011;5727;42.600;23.028;2023-03-01T08:36:40;7.60;;;7.00;;
11344;SDS011;5727;42.600;23.028;2023-03-01T08:39:11;7.23;;;6.60;;
11344;SDS011;5727;42.600;23.028;2023-03-01T08:41:38;7.57;;;6.97;;
11344;SDS011;5727;42.600;23.028;2023-03-01T08:44:06;8.00;;;7.27;;
11344;SDS011;5727;42.600;23.028;2023-03-01T08:46:34;7.47;;;6.87;;
11344;SDS011;5727;42.600;23.028;2023-03-01T08:49:03;8.17;;;7.40;;
11344;SDS011;5727;42.600;23.028;2023-03-01T08:51:30;8.40;;;7.33;;
11344;SDS011;5727;42.600;23.028;2023-03-01T08:54:01;8.07;;;7.27;;
11344;SDS011;5727;42.600;23.028;2023-03-01T08:56:29;8.67;;;7.60;;
11344;SDS011;5727;42.600;23.028;2023-03-01T08:58:57;7.90;;;7.20;;
11344;SDS011;5727;42.600;23.028;2023-03-01T09:01:23;7.30;;;6.57;;
11344;SDS011;5727;42.600;23.028;2023-03-01T09:03:50;7.50;;;6.80;;
11344;SDS011;5727;42.600;23.028;2023-03-01T09:06:17;7.80;;;7.10;;
11344;SDS011;5727;42.600;23.028;2023-03-01T09:08:45;9.13;;;7.87;;
11344;SDS011;5727;42.600;23.028;2023-03-01T09:11:14;9.80;;;6.97;;
11344;SDS011;5727;42.600;23.028;2023-03-01T09:13:43;7.43;;;6.67;;
11344;SDS011;5727;42.600;23.028;2023-03-01T09:16:11;8.87;;;7.77;;
11344;SDS011;5727;42.600;23.028;2023-03-01T09:18:39;8.73;;;7.63;;
11344;SDS011;5727;42.600;23.028;2023-03-01T09:21:07;9.80;;;6.83;;
11344;SDS011;5727;42.600;23.028;2023-03-01T09:23:35;7.23;;;6.23;;
11344;SDS011;5727;42.600;23.028;2023-03-01T09:26:04;7.77;;;6.90;;
11344;SDS011;5727;42.600;23.028;2023-03-01T09:28:31;12.70;;;7.93;;
11344;SDS011;5727;42.600;23.028;2023-03-01T09:31:00;7.80;;;7.00;;
11344;SDS011;5727;42.600;23.028;2023-03-01T09:33:27;9.43;;;7.03;;
11344;SDS011;5727;42.600;23.028;2023-03-01T09:35:56;9.77;;;7.50;;
11344;SDS011;5727;42.600;23.028;2023-03-01T09:38:24;8.70;;;7.87;;
11344;SDS011;5727;42.600;23.028;2023-03-01T09:40:50;7.97;;;7.17;;
11344;SDS011;5727;42.600;23.028;2023-03-01T09:43:19;12.63;;;8.77;;
11344;SDS011;5727;42.600;23.028;2023-03-01T09:45:49;8.93;;;6.97;;
11344;SDS011;5727;42.600;23.028;2023-03-01T09:48:21;8.17;;;6.47;;
11344;SDS011;5727;42.600;23.028;2023-03-01T09:50:51;9.17;;;6.70;;
11344;SDS011;5727;42.600;23.028;2023-03-01T09:53:18;12.13;;;8.63;;
11344;SDS011;5727;42.600;23.028;2023-03-01T09:55:48;11.03;;;7.20;;
11344;SDS011;5727;42.600;23.028;2023-03-01T10:04:09;7.93;;;6.33;;
11344;SDS011;5727;42.600;23.028;2023-03-01T10:06:51;6.97;;;5.40;;
11344;SDS011;5727;42.600;23.028;2023-03-01T10:09:33;6.47;;;5.50;;
11344;SDS011;5727;42.600;23.028;2023-03-01T10:12:02;6.53;;;5.90;;
11344;SDS011;5727;42.600;23.028;2023-03-01T10:14:35;31.60;;;19.33;;
11344;SDS011;5727;42.600;23.028;2023-03-01T10:17:06;11.57;;;9.90;;
11344;SDS011;5727;42.600;23.028;2023-03-01T10:19:40;6.43;;;5.83;;
11344;SDS011;5727;42.600;23.028;2023-03-01T10:22:11;5.73;;;5.20;;
11344;SDS011;5727;42.600;23.028;2023-03-01T10:24:41;5.93;;;5.43;;
11344;SDS011;5727;42.600;23.028;2023-03-01T10:27:11;5.97;;;5.47;;
11344;SDS011;5727;42.600;23.028;2023-03-01T10:29:46;6.03;;;5.53;;
11344;SDS011;5727;42.600;23.028;2023-03-01T10:32:17;7.03;;;6.37;;
11344;SDS011;5727;42.600;23.028;2023-03-01T10:34:48;6.37;;;5.60;;
11344;SDS011;5727;42.600;23.028;2023-03-01T10:37:15;7.17;;;6.47;;
11344;SDS011;5727;42.600;23.028;2023-03-01T10:39:54;10.83;;;8.47;;
11344;SDS011;5727;42.600;23.028;2023-03-01T10:42:25;11.77;;;7.77;;
11344;SDS011;5727;42.600;23.028;2023-03-01T10:44:53;8.20;;;7.30;;
11344;SDS011;5727;42.600;23.028;2023-03-01T10:47:21;8.50;;;6.50;;
11344;SDS011;5727;42.600;23.028;2023-03-01T10:49:52;5.67;;;4.67;;
11344;SDS011;5727;42.600;23.028;2023-03-01T10:52:22;8.33;;;5.17;;
11344;SDS011;5727;42.600;23.028;2023-03-01T10:54:51;8.57;;;5.90;;
11344;SDS011;5727;42.600;23.028;2023-03-01T10:57:31;8.87;;;6.00;;
11344;SDS011;5727;42.600;23.028;2023-03-01T11:02:47;6.87;;;5.63;;
11344;SDS011;5727;42.600;23.028;2023-03-01T11:05:18;6.77;;;6.17;;
11344;SDS011;5727;42.600;23.028;2023-03-01T11:07:49;6.60;;;6.00;;
11344;SDS011;5727;42.600;23.028;2023-03-01T11:10:18;8.20;;;6.87;;
11344;SDS011;5727;42.600;23.028;2023-03-01T11:12:47;8.97;;;7.90;;
11344;SDS011;5727;42.600;23.028;2023-03-01T11:15:21;7.33;;;6.60;;
11344;SDS011;5727;42.600;23.028;2023-03-01T11:17:50;8.33;;;6.97;;
11344;SDS011;5727;42.600;23.028;2023-03-01T11:20:23;8.10;;;6.57;;
11344;SDS011;5727;42.600;23.028;2023-03-01T11:22:54;7.97;;;7.17;;
11344;SDS011;5727;42.600;23.028;2023-03-01T11:25:24;7.80;;;7.00;;
11344;SDS011;5727;42.600;23.028;2023-03-01T11:27:53;8.43;;;7.63;;
11344;SDS011;5727;42.600;23.028;2023-03-01T11:30:23;7.97;;;7.13;;
11344;SDS011;5727;42.600;23.028;2023-03-01T11:33:01;9.70;;;7.73;;
11344;SDS011;5727;42.600;23.028;2023-03-01T11:35:41;10.43;;;7.70;;
11344;SDS011;5727;42.600;23.028;2023-03-01T11:38:19;9.07;;;7.57;;
11344;SDS011;5727;42.600;23.028;2023-03-01T11:40:50;14.60;;;7.60;;
11344;SDS011;5727;42.600;23.028;2023-03-01T11:43:26;13.40;;;7.90;;
11344;SDS011;5727;42.600;23.028;2023-03-01T11:48:57;10.83;;;5.77;;
11344;SDS011;5727;42.600;23.028;2023-03-01T11:51:41;12.57;;;6.70;;
11344;SDS011;5727;42.600;23.028;2023-03-01T11:54:13;11.53;;;6.93;;
11344;SDS011;5727;42.600;23.028;2023-03-01T11:56:53;9.60;;;6.03;;
11344;SDS011;5727;42.600;23.028;2023-03-01T11:59:30;10.27;;;6.10;;
11344;SDS011;5727;42.600;23.028;2023-03-01T12:02:26;7.83;;;5.80;;
11344;SDS011;5727;42.600;23.028;2023-03-01T12:05:24;9.17;;;6.00;;
11344;SDS011;5727;42.600;23.028;2023-03-01T12:08:21;8.70;;;6.70;;
11344;SDS011;5727;42.600;23.028;2023-03-01T12:10:57;8.40;;;6.07;;
11344;SDS011;5727;42.600;23.028;2023-03-01T12:13:37;8.60;;;5.97;;
11344;SDS011;5727;42.600;23.028;2023-03-01T12:16:23;12.83;;;6.67;;
11344;SDS011;5727;42.600;23.028;2023-03-01T12:19:05;12.07;;;7.47;;
11344;SDS011;5727;42.600;23.028;2023-03-01T12:21:52;8.70;;;6.97;;
11344;SDS011;5727;42.600;23.028;2023-03-01T12:27:36;9.00;;;7.20;;
11344;SDS011;5727;42.600;23.028;2023-03-01T12:30:17;10.30;;;8.03;;
11344;SDS011;5727;42.600;23.028;2023-03-01T12:32:54;8.77;;;7.80;;
11344;SDS011;5727;42.600;23.028;2023-03-01T12:35:33;12.40;;;8.67;;
11344;SDS011;5727;42.600;23.028;2023-03-01T12:38:12;9.47;;;7.37;;
11344;SDS011;5727;42.600;23.028;2023-03-01T12:41:01;10.80;;;7.70;;
11344;SDS011;5727;42.600;23.028;2023-03-01T12:43:41;9.13;;;7.50;;
11344;SDS011;5727;42.600;23.028;2023-03-01T12:46:25;10.97;;;8.00;;
11344;SDS011;5727;42.600;23.028;2023-03-01T12:49:12;9.53;;;7.90;;
11344;SDS011;5727;42.600;23.028;2023-03-01T12:51:42;9.93;;;7.60;;
11344;SDS011;5727;42.600;23.028;2023-03-01T12:54:19;8.40;;;7.23;;
11344;SDS011;5727;42.600;23.028;2023-03-01T12:56:53;10.17;;;7.83;;
11344;SDS011;5727;42.600;23.028;2023-03-01T12:59:22;10.57;;;7.93;;
11344;SDS011;5727;42.600;23.028;2023-03-01T13:01:55;9.83;;;8.23;;
11344;SDS011;5727;42.600;23.028;2023-03-01T13:04:33;12.80;;;9.87;;
11344;SDS011;5727;42.600;23.028;2023-03-01T13:09:56;11.83;;;8.63;;
11344;SDS011;5727;42.600;23.028;2023-03-01T13:15:37;10.97;;;8.60;;
11344;SDS011;5727;42.600;23.028;2023-03-01T13:18:27;11.87;;;8.77;;
11344;SDS011;5727;42.600;23.028;2023-03-01T13:20:56;9.47;;;8.47;;
11344;SDS011;5727;42.600;23.028;2023-03-01T13:23:28;10.93;;;9.67;;
11344;SDS011;5727;42.600;23.028;2023-03-01T13:26:01;10.23;;;7.93;;
11344;SDS011;5727;42.600;23.028;2023-03-01T13:34:45;11.40;;;8.77;;
11344;SDS011;5727;42.600;23.028;2023-03-01T13:45:54;9.73;;;6.10;;
11344;SDS011;5727;42.600;23.028;2023-03-01T13:48:21;10.33;;;6.40;;
11344;SDS011;5727;42.600;23.028;2023-03-01T13:50:52;15.77;;;8.90;;
11344;SDS011;5727;42.600;23.028;2023-03-01T13:53:22;17.53;;;9.00;;
11344;SDS011;5727;42.600;23.028;2023-03-01T13:55:52;18.87;;;10.03;;
11344;SDS011;5727;42.600;23.028;2023-03-01T13:58:24;23.80;;;11.77;;
11344;SDS011;5727;42.600;23.028;2023-03-01T14:00:57;8.23;;;6.67;;
11344;SDS011;5727;42.600;23.028;2023-03-01T14:03:26;25.57;;;12.07;;
11344;SDS011;5727;42.600;23.028;2023-03-01T14:05:59;8.87;;;7.33;;
11344;SDS011;5727;42.600;23.028;2023-03-01T14:08:28;11.97;;;7.03;;
11344;SDS011;5727;42.600;23.028;2023-03-01T14:11:04;8.13;;;5.73;;
11344;SDS011;5727;42.600;23.028;2023-03-01T14:13:48;8.43;;;6.70;;
11344;SDS011;5727;42.600;23.028;2023-03-01T14:16:31;8.17;;;5.80;;
11344;SDS011;5727;42.600;23.028;2023-03-01T14:19:14;6.07;;;5.27;;
11344;SDS011;5727;42.600;23.028;2023-03-01T14:21:45;7.17;;;5.70;;
11344;SDS011;5727;42.600;23.028;2023-03-01T14:24:17;6.90;;;6.20;;
11344;SDS011;5727;42.600;23.028;2023-03-01T14:26:46;7.80;;;6.33;;
11344;SDS011;5727;42.600;23.028;2023-03-01T14:29:26;6.03;;;5.40;;
11344;SDS011;5727;42.600;23.028;2023-03-01T14:31:55;6.23;;;4.90;;
11344;SDS011;5727;42.600;23.028;2023-03-01T14:34:34;8.43;;;6.63;;
11344;SDS011;5727;42.600;23.028;2023-03-01T14:37:09;7.47;;;6.20;;
11344;SDS011;5727;42.600;23.028;2023-03-01T14:39:36;11.37;;;7.33;;
11344;SDS011;5727;42.600;23.028;2023-03-01T14:42:04;7.57;;;5.87;;
11344;SDS011;5727;42.600;23.028;2023-03-01T14:44:31;10.33;;;6.70;;
11344;SDS011;5727;42.600;23.028;2023-03-01T14:47:03;9.60;;;6.43;;
11344;SDS011;5727;42.600;23.028;2023-03-01T14:49:31;8.27;;;5.63;;
11344;SDS011;5727;42.600;23.028;2023-03-01T14:51:59;8.83;;;6.10;;
11344;SDS011;5727;42.600;23.028;2023-03-01T14:54:29;7.43;;;5.97;;
11344;SDS011;5727;42.600;23.028;2023-03-01T14:57:03;8.33;;;5.93;;
11344;SDS011;5727;42.600;23.028;2023-03-01T14:59:32;8.63;;;6.30;;
11344;SDS011;5727;42.600;23.028;2023-03-01T15:02:00;9.13;;;6.93;;
11344;SDS011;5727;42.600;23.028;2023-03-01T15:04:28;12.83;;;7.33;;
11344;SDS011;5727;42.600;23.028;2023-03-01T15:06:57;33.90;;;14.57;;
11344;SDS011;5727;42.600;23.028;2023-03-01T15:09:30;27.67;;;13.00;;
11344;SDS011;5727;42.600;23.028;2023-03-01T15:12:00;56.60;;;19.97;;
11344;SDS011;5727;42.600;23.028;2023-03-01T15:14:47;81.70;;;27.17;;
11344;SDS011;5727;42.600;23.028;2023-03-01T15:17:18;58.27;;;21.13;;
11344;SDS011;5727;42.600;23.028;2023-03-01T15:19:48;58.37;;;21.67;;
11344;SDS011;5727;42.600;23.028;2023-03-01T15:22:15;31.60;;;13.60;;
11344;SDS011;5727;42.600;23.028;2023-03-01T15:24:46;16.53;;;8.87;;
11344;SDS011;5727;42.600;23.028;2023-03-01T15:27:14;10.63;;;7.37;;
11344;SDS011;5727;42.600;23.028;2023-03-01T15:29:48;8.63;;;6.53;;
11344;SDS011;5727;42.600;23.028;2023-03-01T15:32:26;10.53;;;8.47;;
11344;SDS011;5727;42.600;23.028;2023-03-01T15:34:56;8.93;;;6.73;;
11344;SDS011;5727;42.600;23.028;2023-03-01T15:37:38;6.47;;;5.73;;
11344;SDS011;5727;42.600;23.028;2023-03-01T15:42:56;9.17;;;6.23;;